Turtle Creek, PA (15145)

5:37 PM EST on March 05, 2015 (GMT -0500)
Monroeville | Change Station
CLOSE
Current Station
Personal Weather Station
Location: Monroeville, PA
Elevation: 1001 ft
Nearby Weather Stations

Elev 1001 ft 40.41 °N, 79.81 °W | Updated 18 seconds ago

Overcast
Overcast
16.9 °F
Feels Like 17 °F
N
0.0
Wind Variable Wind from NE
Gusts 0.0 mph

Today
High -- | Low -- °F
--% Chance of Precip.
Yesterday
High -- | Low -- °F
Precip. -- in
6:47 AM 6:15 PM
Full, 100% visible
Pressure 30.38 in
Visibility -9999.0 miles
Clouds Overcast 11000 ft
Windchill 17 °F
Dew Point 8 °F
Humidity 69%
Rainfall in
Snow Depth Not available.
UV 0 out of 12
Pollen .60 out of 12
Air Quality Not available.
Flu Activity Not available.
METAR KAGC 052153Z 32011KT OVC110 M09/M18 A3029 RMK AO2 SLP286 T10941183

More Conditions Fewer Conditions

Pressure 30.38 in
Visibility -9999.0 miles
Clouds Overcast 11000 ft
Windchill 17 °F
Dew Point 8 °F
Humidity 69%
Rainfall in
Snow Depth Not available.
UV 0 out of 12
Pollen .60 out of 12
Air Quality Not available.
Flu Activity Not available.
METAR KAGC 052153Z 32011KT OVC110 M09/M18 A3029 RMK AO2 SLP286 T10941183

More Conditions Fewer Conditions

10-Day Weather Forecast

Almanac

Astronomy

Mar. 05, 2015 Rise Set
Actual Time
Civil Twilight
Nautical Twilight
Astronomical Twilight
Moon
Length of Visible Light
Length of Day
Tomorrow will be .
, % of the Moon is Illuminated

Today's Extremes

State Highs State Lows

Community

WunderPhotos

Upload Photos

1,803,020 photos uploaded!

WunderBlogs® & News

Nearby

Air Quality

  Air Quality AQ Index Pollutant
Not available.

Snow Depth

Station Depth Elevation

Earthquake Activity

City Distance Mag. Time & Date
Minimum magnitude displayed is 2.5.

Coastal Water Temperatures

Place Temperature

Nearby Weather Stations

Flood Warning
Statement as of 11:14 AM EST on March 05, 2015

The river Flood Warning continues for,
the Monongahela river near Elizabeth.
* Until late tonight, or until the warning is cancelled.
* At 10:15 am Thursday the stage was 23.6 feet.
* Flood stage is 20.0 feet.
* Moderate flooding is occurring and minor flooding is forecast.
* Forecast... the river will continue to fall to below flood stage by
tonight.
* Impact... at 23.0 feet, Industrial chemical corporation plant floods.


Lat... Lon 4026 7994 4032 7988 4029 7984 4025 7990





Flood Advisory
Statement as of 1:30 PM EST on March 05, 2015

The Flood Advisory continues for
the Ohio River at Pittsburgh.
* Until Friday morning.
* At 1pm Thursday the stage was 21.7 feet.
* Flood stage is 25.0 feet.
* Forecast... the river will fall to near 21.4 feet this evening.
* Impact... at 22.0 feet, the tenth street bypass floods.


Lat... Lon 4043 7999 4045 8005 4047 8003 4045 8001
      4046 7999 4045 7998